sensor_id;sensor_type;location;lat;lon;timestamp;P1;durP1;ratioP1;P2;durP2;ratioP2
28188;SDS011;15471;51.166;4.470;2023-04-03T00:01:38;0.20;;;0.20;;
28188;SDS011;15471;51.166;4.470;2023-04-03T00:04:04;0.20;;;0.20;;
28188;SDS011;15471;51.166;4.470;2023-04-03T00:06:31;0.20;;;0.20;;
28188;SDS011;15471;51.166;4.470;2023-04-03T00:08:57;0.20;;;0.20;;
28188;SDS011;15471;51.166;4.470;2023-04-03T00:11:23;0.20;;;0.20;;
28188;SDS011;15471;51.166;4.470;2023-04-03T00:13:50;0.22;;;0.22;;
28188;SDS011;15471;51.166;4.470;2023-04-03T00:16:16;0.20;;;0.20;;
28188;SDS011;15471;51.166;4.470;2023-04-03T00:18:42;0.20;;;0.20;;
28188;SDS011;15471;51.166;4.470;2023-04-03T00:21:09;0.20;;;0.20;;
28188;SDS011;15471;51.166;4.470;2023-04-03T00:23:37;0.20;;;0.20;;
28188;SDS011;15471;51.166;4.470;2023-04-03T00:26:03;0.20;;;0.20;;
28188;SDS011;15471;51.166;4.470;2023-04-03T00:28:29;0.20;;;0.20;;
28188;SDS011;15471;51.166;4.470;2023-04-03T00:30:55;0.20;;;0.20;;
28188;SDS011;15471;51.166;4.470;2023-04-03T00:33:21;0.20;;;0.20;;
28188;SDS011;15471;51.166;4.470;2023-04-03T00:35:47;0.20;;;0.20;;
28188;SDS011;15471;51.166;4.470;2023-04-03T00:38:14;0.20;;;0.20;;
28188;SDS011;15471;51.166;4.470;2023-04-03T00:40:44;0.20;;;0.20;;
28188;SDS011;15471;51.166;4.470;2023-04-03T00:43:16;0.30;;;0.30;;
28188;SDS011;15471;51.166;4.470;2023-04-03T00:46:03;0.20;;;0.20;;
28188;SDS011;15471;51.166;4.470;2023-04-03T00:48:30;0.20;;;0.20;;
28188;SDS011;15471;51.166;4.470;2023-04-03T00:51:10;0.20;;;0.20;;
28188;SDS011;15471;51.166;4.470;2023-04-03T00:53:41;0.30;;;0.30;;
28188;SDS011;15471;51.166;4.470;2023-04-03T00:56:12;0.20;;;0.20;;
28188;SDS011;15471;51.166;4.470;2023-04-03T00:58:44;0.20;;;0.20;;
28188;SDS011;15471;51.166;4.470;2023-04-03T01:01:18;0.20;;;0.20;;
28188;SDS011;15471;51.166;4.470;2023-04-03T01:03:50;0.20;;;0.20;;
28188;SDS011;15471;51.166;4.470;2023-04-03T01:06:17;0.20;;;0.20;;
28188;SDS011;15471;51.166;4.470;2023-04-03T01:09:04;0.20;;;0.20;;
28188;SDS011;15471;51.166;4.470;2023-04-03T01:11:30;0.20;;;0.20;;
28188;SDS011;15471;51.166;4.470;2023-04-03T01:13:56;0.20;;;0.20;;
28188;SDS011;15471;51.166;4.470;2023-04-03T01:16:24;0.20;;;0.20;;
28188;SDS011;15471;51.166;4.470;2023-04-03T01:18:50;0.20;;;0.20;;
28188;SDS011;15471;51.166;4.470;2023-04-03T01:24:38;0.20;;;0.20;;
28188;SDS011;15471;51.166;4.470;2023-04-03T01:26:45;0.30;;;0.30;;
28188;SDS011;15471;51.166;4.470;2023-04-03T01:29:11;0.25;;;0.25;;
28188;SDS011;15471;51.166;4.470;2023-04-03T01:31:48;0.30;;;0.30;;
28188;SDS011;15471;51.166;4.470;2023-04-03T01:34:18;0.20;;;0.20;;
28188;SDS011;15471;51.166;4.470;2023-04-03T01:36:44;0.20;;;0.20;;
28188;SDS011;15471;51.166;4.470;2023-04-03T01:39:10;0.20;;;0.20;;
28188;SDS011;15471;51.166;4.470;2023-04-03T01:41:36;0.20;;;0.20;;
28188;SDS011;15471;51.166;4.470;2023-04-03T01:44:11;0.20;;;0.20;;
28188;SDS011;15471;51.166;4.470;2023-04-03T01:46:37;0.20;;;0.20;;
28188;SDS011;15471;51.166;4.470;2023-04-03T01:49:03;0.20;;;0.20;;
28188;SDS011;15471;51.166;4.470;2023-04-03T01:51:29;0.28;;;0.28;;
28188;SDS011;15471;51.166;4.470;2023-04-03T01:53:56;0.20;;;0.20;;
28188;SDS011;15471;51.166;4.470;2023-04-03T01:56:22;0.28;;;0.28;;
28188;SDS011;15471;51.166;4.470;2023-04-03T01:58:48;0.20;;;0.20;;
28188;SDS011;15471;51.166;4.470;2023-04-03T02:01:15;0.30;;;0.30;;
28188;SDS011;15471;51.166;4.470;2023-04-03T02:03:41;0.20;;;0.20;;
28188;SDS011;15471;51.166;4.470;2023-04-03T02:06:07;0.20;;;0.20;;
28188;SDS011;15471;51.166;4.470;2023-04-03T02:08:33;0.30;;;0.30;;
28188;SDS011;15471;51.166;4.470;2023-04-03T02:10:59;0.20;;;0.20;;
28188;SDS011;15471;51.166;4.470;2023-04-03T02:13:26;0.20;;;0.20;;
28188;SDS011;15471;51.166;4.470;2023-04-03T02:15:52;0.30;;;0.30;;
28188;SDS011;15471;51.166;4.470;2023-04-03T02:18:18;0.30;;;0.30;;
28188;SDS011;15471;51.166;4.470;2023-04-03T02:20:43;0.30;;;0.30;;
28188;SDS011;15471;51.166;4.470;2023-04-03T02:23:11;0.30;;;0.30;;
28188;SDS011;15471;51.166;4.470;2023-04-03T02:25:37;0.20;;;0.20;;
28188;SDS011;15471;51.166;4.470;2023-04-03T02:28:03;0.30;;;0.30;;
28188;SDS011;15471;51.166;4.470;2023-04-03T02:30:30;0.20;;;0.20;;
28188;SDS011;15471;51.166;4.470;2023-04-03T02:32:56;0.20;;;0.20;;
28188;SDS011;15471;51.166;4.470;2023-04-03T02:35:23;0.20;;;0.20;;
28188;SDS011;15471;51.166;4.470;2023-04-03T02:37:49;0.28;;;0.28;;
28188;SDS011;15471;51.166;4.470;2023-04-03T02:40:16;0.30;;;0.30;;
28188;SDS011;15471;51.166;4.470;2023-04-03T02:42:42;0.22;;;0.22;;
28188;SDS011;15471;51.166;4.470;2023-04-03T02:45:08;0.30;;;0.30;;
28188;SDS011;15471;51.166;4.470;2023-04-03T02:47:34;0.20;;;0.20;;
28188;SDS011;15471;51.166;4.470;2023-04-03T02:50:00;0.20;;;0.20;;
28188;SDS011;15471;51.166;4.470;2023-04-03T02:52:26;0.20;;;0.20;;
28188;SDS011;15471;51.166;4.470;2023-04-03T02:54:55;0.22;;;0.22;;
28188;SDS011;15471;51.166;4.470;2023-04-03T02:57:21;0.30;;;0.30;;
28188;SDS011;15471;51.166;4.470;2023-04-03T02:59:47;0.30;;;0.30;;
28188;SDS011;15471;51.166;4.470;2023-04-03T03:02:13;0.30;;;0.30;;
28188;SDS011;15471;51.166;4.470;2023-04-03T03:04:40;0.30;;;0.30;;
28188;SDS011;15471;51.166;4.470;2023-04-03T03:07:05;0.30;;;0.30;;
28188;SDS011;15471;51.166;4.470;2023-04-03T03:09:32;0.30;;;0.30;;
28188;SDS011;15471;51.166;4.470;2023-04-03T03:11:59;0.30;;;0.30;;
28188;SDS011;15471;51.166;4.470;2023-04-03T03:14:25;0.30;;;0.30;;
28188;SDS011;15471;51.166;4.470;2023-04-03T03:16:51;0.30;;;0.30;;
28188;SDS011;15471;51.166;4.470;2023-04-03T03:19:17;0.30;;;0.30;;
28188;SDS011;15471;51.166;4.470;2023-04-03T03:21:43;0.20;;;0.20;;
28188;SDS011;15471;51.166;4.470;2023-04-03T03:24:09;0.30;;;0.30;;
28188;SDS011;15471;51.166;4.470;2023-04-03T03:26:35;0.25;;;0.25;;
28188;SDS011;15471;51.166;4.470;2023-04-03T03:29:01;0.30;;;0.30;;
28188;SDS011;15471;51.166;4.470;2023-04-03T03:31:28;0.30;;;0.30;;
28188;SDS011;15471;51.166;4.470;2023-04-03T03:33:54;0.30;;;0.30;;
28188;SDS011;15471;51.166;4.470;2023-04-03T03:36:21;0.30;;;0.30;;
28188;SDS011;15471;51.166;4.470;2023-04-03T03:38:47;0.20;;;0.20;;
28188;SDS011;15471;51.166;4.470;2023-04-03T03:41:13;0.30;;;0.30;;
28188;SDS011;15471;51.166;4.470;2023-04-03T03:43:42;0.30;;;0.30;;
28188;SDS011;15471;51.166;4.470;2023-04-03T03:46:07;0.30;;;0.30;;
28188;SDS011;15471;51.166;4.470;2023-04-03T03:48:33;0.30;;;0.30;;
28188;SDS011;15471;51.166;4.470;2023-04-03T03:51:00;0.30;;;0.30;;
28188;SDS011;15471;51.166;4.470;2023-04-03T03:53:30;0.30;;;0.30;;
28188;SDS011;15471;51.166;4.470;2023-04-03T03:56:01;0.30;;;0.30;;
28188;SDS011;15471;51.166;4.470;2023-04-03T03:58:29;0.28;;;0.28;;
28188;SDS011;15471;51.166;4.470;2023-04-03T04:00:56;0.30;;;0.30;;
28188;SDS011;15471;51.166;4.470;2023-04-03T04:03:22;0.30;;;0.30;;
28188;SDS011;15471;51.166;4.470;2023-04-03T04:05:50;0.30;;;0.30;;
28188;SDS011;15471;51.166;4.470;2023-04-03T04:08:17;0.30;;;0.30;;
28188;SDS011;15471;51.166;4.470;2023-04-03T04:10:44;0.30;;;0.30;;
28188;SDS011;15471;51.166;4.470;2023-04-03T04:13:13;0.30;;;0.30;;
28188;SDS011;15471;51.166;4.470;2023-04-03T04:15:40;0.30;;;0.30;;
28188;SDS011;15471;51.166;4.470;2023-04-03T04:18:05;0.30;;;0.30;;
28188;SDS011;15471;51.166;4.470;2023-04-03T04:20:31;0.30;;;0.30;;
28188;SDS011;15471;51.166;4.470;2023-04-03T04:22:58;0.30;;;0.30;;
28188;SDS011;15471;51.166;4.470;2023-04-03T04:25:25;0.30;;;0.30;;
28188;SDS011;15471;51.166;4.470;2023-04-03T04:27:52;0.30;;;0.30;;
28188;SDS011;15471;51.166;4.470;2023-04-03T04:30:18;0.30;;;0.30;;
28188;SDS011;15471;51.166;4.470;2023-04-03T04:32:48;0.30;;;0.30;;
28188;SDS011;15471;51.166;4.470;2023-04-03T04:35:15;0.30;;;0.30;;
28188;SDS011;15471;51.166;4.470;2023-04-03T04:37:42;0.30;;;0.30;;
28188;SDS011;15471;51.166;4.470;2023-04-03T04:40:10;0.30;;;0.30;;
28188;SDS011;15471;51.166;4.470;2023-04-03T04:42:36;0.30;;;0.30;;
28188;SDS011;15471;51.166;4.470;2023-04-03T04:45:03;0.30;;;0.30;;
28188;SDS011;15471;51.166;4.470;2023-04-03T04:47:29;0.30;;;0.30;;
28188;SDS011;15471;51.166;4.470;2023-04-03T04:49:56;0.30;;;0.30;;
28188;SDS011;15471;51.166;4.470;2023-04-03T04:52:22;0.20;;;0.20;;
28188;SDS011;15471;51.166;4.470;2023-04-03T04:54:48;0.30;;;0.30;;
28188;SDS011;15471;51.166;4.470;2023-04-03T04:57:15;0.30;;;0.30;;
28188;SDS011;15471;51.166;4.470;2023-04-03T04:59:41;0.30;;;0.30;;
28188;SDS011;15471;51.166;4.470;2023-04-03T05:02:07;0.30;;;0.30;;
28188;SDS011;15471;51.166;4.470;2023-04-03T05:04:34;0.30;;;0.30;;
28188;SDS011;15471;51.166;4.470;2023-04-03T05:09:35;0.30;;;0.30;;
28188;SDS011;15471;51.166;4.470;2023-04-03T05:12:01;0.30;;;0.30;;
28188;SDS011;15471;51.166;4.470;2023-04-03T05:14:33;0.30;;;0.30;;
28188;SDS011;15471;51.166;4.470;2023-04-03T05:17:03;0.30;;;0.30;;
28188;SDS011;15471;51.166;4.470;2023-04-03T05:19:32;0.30;;;0.30;;
28188;SDS011;15471;51.166;4.470;2023-04-03T05:22:00;0.30;;;0.30;;
28188;SDS011;15471;51.166;4.470;2023-04-03T05:24:28;0.30;;;0.30;;
28188;SDS011;15471;51.166;4.470;2023-04-03T05:26:54;0.30;;;0.30;;
28188;SDS011;15471;51.166;4.470;2023-04-03T05:29:20;0.30;;;0.30;;
28188;SDS011;15471;51.166;4.470;2023-04-03T05:31:48;0.30;;;0.30;;
28188;SDS011;15471;51.166;4.470;2023-04-03T05:34:16;0.30;;;0.30;;
28188;SDS011;15471;51.166;4.470;2023-04-03T05:36:43;0.30;;;0.30;;
28188;SDS011;15471;51.166;4.470;2023-04-03T05:39:11;0.30;;;0.30;;
28188;SDS011;15471;51.166;4.470;2023-04-03T05:41:40;0.30;;;0.30;;
28188;SDS011;15471;51.166;4.470;2023-04-03T05:44:06;0.38;;;0.38;;
28188;SDS011;15471;51.166;4.470;2023-04-03T05:46:32;0.30;;;0.30;;
28188;SDS011;15471;51.166;4.470;2023-04-03T05:49:02;0.30;;;0.30;;
28188;SDS011;15471;51.166;4.470;2023-04-03T05:51:33;0.30;;;0.30;;
28188;SDS011;15471;51.166;4.470;2023-04-03T05:54:26;0.30;;;0.30;;
28188;SDS011;15471;51.166;4.470;2023-04-03T05:57:00;0.30;;;0.30;;
28188;SDS011;15471;51.166;4.470;2023-04-03T05:59:27;0.30;;;0.30;;
28188;SDS011;15471;51.166;4.470;2023-04-03T06:01:56;0.30;;;0.30;;
28188;SDS011;15471;51.166;4.470;2023-04-03T06:04:23;0.30;;;0.30;;
28188;SDS011;15471;51.166;4.470;2023-04-03T06:06:56;0.30;;;0.30;;
28188;SDS011;15471;51.166;4.470;2023-04-03T06:09:25;0.30;;;0.30;;
28188;SDS011;15471;51.166;4.470;2023-04-03T06:11:52;0.30;;;0.30;;
28188;SDS011;15471;51.166;4.470;2023-04-03T06:14:21;0.30;;;0.30;;
28188;SDS011;15471;51.166;4.470;2023-04-03T06:16:47;0.30;;;0.30;;
28188;SDS011;15471;51.166;4.470;2023-04-03T06:19:13;0.20;;;0.20;;
28188;SDS011;15471;51.166;4.470;2023-04-03T06:21:45;0.30;;;0.30;;
28188;SDS011;15471;51.166;4.470;2023-04-03T06:24:13;0.30;;;0.30;;
28188;SDS011;15471;51.166;4.470;2023-04-03T06:26:41;0.30;;;0.30;;
28188;SDS011;15471;51.166;4.470;2023-04-03T06:29:08;0.30;;;0.30;;
28188;SDS011;15471;51.166;4.470;2023-04-03T06:31:35;0.20;;;0.20;;
28188;SDS011;15471;51.166;4.470;2023-04-03T06:34:02;0.30;;;0.30;;
28188;SDS011;15471;51.166;4.470;2023-04-03T06:36:28;0.20;;;0.20;;
28188;SDS011;15471;51.166;4.470;2023-04-03T06:38:55;0.20;;;0.20;;
28188;SDS011;15471;51.166;4.470;2023-04-03T06:41:21;0.20;;;0.20;;
28188;SDS011;15471;51.166;4.470;2023-04-03T06:43:47;0.28;;;0.28;;
28188;SDS011;15471;51.166;4.470;2023-04-03T06:46:14;0.20;;;0.20;;
28188;SDS011;15471;51.166;4.470;2023-04-03T06:48:44;0.20;;;0.20;;
28188;SDS011;15471;51.166;4.470;2023-04-03T06:51:21;0.20;;;0.20;;
28188;SDS011;15471;51.166;4.470;2023-04-03T06:53:52;0.20;;;0.20;;
28188;SDS011;15471;51.166;4.470;2023-04-03T06:56:20;0.20;;;0.20;;
28188;SDS011;15471;51.166;4.470;2023-04-03T06:58:47;0.20;;;0.20;;
28188;SDS011;15471;51.166;4.470;2023-04-03T07:01:14;0.20;;;0.20;;
28188;SDS011;15471;51.166;4.470;2023-04-03T07:03:42;0.20;;;0.20;;
28188;SDS011;15471;51.166;4.470;2023-04-03T07:06:09;0.20;;;0.20;;
28188;SDS011;15471;51.166;4.470;2023-04-03T07:08:37;0.20;;;0.20;;
28188;SDS011;15471;51.166;4.470;2023-04-03T07:11:04;0.20;;;0.20;;
28188;SDS011;15471;51.166;4.470;2023-04-03T07:13:31;0.20;;;0.20;;
28188;SDS011;15471;51.166;4.470;2023-04-03T07:15:57;0.20;;;0.20;;
28188;SDS011;15471;51.166;4.470;2023-04-03T07:18:24;0.20;;;0.20;;
28188;SDS011;15471;51.166;4.470;2023-04-03T07:20:50;0.20;;;0.20;;
28188;SDS011;15471;51.166;4.470;2023-04-03T07:23:17;0.20;;;0.20;;
28188;SDS011;15471;51.166;4.470;2023-04-03T07:25:50;0.20;;;0.20;;
28188;SDS011;15471;51.166;4.470;2023-04-03T07:28:17;0.20;;;0.20;;
28188;SDS011;15471;51.166;4.470;2023-04-03T07:30:49;0.20;;;0.20;;
28188;SDS011;15471;51.166;4.470;2023-04-03T07:33:24;0.20;;;0.20;;
28188;SDS011;15471;51.166;4.470;2023-04-03T07:35:50;0.20;;;0.20;;
28188;SDS011;15471;51.166;4.470;2023-04-03T07:38:16;0.20;;;0.20;;
28188;SDS011;15471;51.166;4.470;2023-04-03T07:40:47;0.20;;;0.20;;
28188;SDS011;15471;51.166;4.470;2023-04-03T07:43:16;0.20;;;0.20;;
28188;SDS011;15471;51.166;4.470;2023-04-03T07:45:43;0.20;;;0.20;;
28188;SDS011;15471;51.166;4.470;2023-04-03T07:48:12;0.20;;;0.20;;
28188;SDS011;15471;51.166;4.470;2023-04-03T07:50:41;0.20;;;0.20;;
28188;SDS011;15471;51.166;4.470;2023-04-03T07:53:08;0.20;;;0.20;;
28188;SDS011;15471;51.166;4.470;2023-04-03T07:55:50;0.20;;;0.20;;
28188;SDS011;15471;51.166;4.470;2023-04-03T07:58:20;0.20;;;0.20;;
28188;SDS011;15471;51.166;4.470;2023-04-03T08:00:46;0.20;;;0.20;;
28188;SDS011;15471;51.166;4.470;2023-04-03T08:03:14;0.20;;;0.20;;
28188;SDS011;15471;51.166;4.470;2023-04-03T08:05:42;0.20;;;0.20;;
28188;SDS011;15471;51.166;4.470;2023-04-03T08:08:11;0.10;;;0.10;;
28188;SDS011;15471;51.166;4.470;2023-04-03T08:10:38;0.20;;;0.20;;
28188;SDS011;15471;51.166;4.470;2023-04-03T08:13:04;0.10;;;0.10;;
28188;SDS011;15471;51.166;4.470;2023-04-03T08:15:31;0.20;;;0.20;;
28188;SDS011;15471;51.166;4.470;2023-04-03T08:17:58;0.20;;;0.20;;
28188;SDS011;15471;51.166;4.470;2023-04-03T08:20:26;0.20;;;0.20;;
28188;SDS011;15471;51.166;4.470;2023-04-03T08:22:53;0.13;;;0.13;;
28188;SDS011;15471;51.166;4.470;2023-04-03T08:25:22;0.10;;;0.10;;
28188;SDS011;15471;51.166;4.470;2023-04-03T08:27:49;0.10;;;0.10;;
28188;SDS011;15471;51.166;4.470;2023-04-03T08:30:16;0.13;;;0.13;;
28188;SDS011;15471;51.166;4.470;2023-04-03T08:32:42;0.10;;;0.10;;
28188;SDS011;15471;51.166;4.470;2023-04-03T08:35:09;0.10;;;0.10;;
28188;SDS011;15471;51.166;4.470;2023-04-03T08:37:39;0.20;;;0.20;;
28188;SDS011;15471;51.166;4.470;2023-04-03T08:40:06;0.20;;;0.20;;
28188;SDS011;15471;51.166;4.470;2023-04-03T08:42:40;0.10;;;0.10;;
28188;SDS011;15471;51.166;4.470;2023-04-03T08:48:22;0.10;;;0.10;;
28188;SDS011;15471;51.166;4.470;2023-04-03T08:50:50;0.00;;;0.00;;
28188;SDS011;15471;51.166;4.470;2023-04-03T08:53:20;0.00;;;0.00;;
28188;SDS011;15471;51.166;4.470;2023-04-03T08:55:50;0.00;;;0.00;;
28188;SDS011;15471;51.166;4.470;2023-04-03T08:58:22;0.00;;;0.00;;
28188;SDS011;15471;51.166;4.470;2023-04-03T09:01:17;0.00;;;0.00;;
28188;SDS011;15471;51.166;4.470;2023-04-03T09:03:46;0.00;;;0.00;;
28188;SDS011;15471;51.166;4.470;2023-04-03T09:08:57;0.00;;;0.00;;
28188;SDS011;15471;51.166;4.470;2023-04-03T09:17:18;0.00;;;0.00;;
28188;SDS011;15471;51.166;4.470;2023-04-03T09:20:06;0.00;;;0.00;;
28188;SDS011;15471;51.166;4.470;2023-04-03T09:22:45;0.00;;;0.00;;
28188;SDS011;15471;51.166;4.470;2023-04-03T09:25:13;0.00;;;0.00;;
28188;SDS011;15471;51.166;4.470;2023-04-03T09:27:44;0.00;;;0.00;;
28188;SDS011;15471;51.166;4.470;2023-04-03T09:30:14;0.00;;;0.00;;
28188;SDS011;15471;51.166;4.470;2023-04-03T09:32:47;0.00;;;0.00;;
28188;SDS011;15471;51.166;4.470;2023-04-03T09:37:42;0.00;;;0.00;;
28188;SDS011;15471;51.166;4.470;2023-04-03T09:40:28;0.00;;;0.00;;
28188;SDS011;15471;51.166;4.470;2023-04-03T09:42:59;0.00;;;0.00;;
28188;SDS011;15471;51.166;4.470;2023-04-03T09:45:31;0.00;;;0.00;;
28188;SDS011;15471;51.166;4.470;2023-04-03T09:50:58;0.00;;;0.00;;
28188;SDS011;15471;51.166;4.470;2023-04-03T09:55:56;0.00;;;0.00;;
28188;SDS011;15471;51.166;4.470;2023-04-03T09:58:27;0.00;;;0.00;;
28188;SDS011;15471;51.166;4.470;2023-04-03T10:00:59;0.00;;;0.00;;
28188;SDS011;15471;51.166;4.470;2023-04-03T10:05:55;0.00;;;0.00;;
28188;SDS011;15471;51.166;4.470;2023-04-03T10:08:24;0.00;;;0.00;;
28188;SDS011;15471;51.166;4.470;2023-04-03T10:11:07;0.00;;;0.00;;
28188;SDS011;15471;51.166;4.470;2023-04-03T10:25:03;0.00;;;0.00;;
28188;SDS011;15471;51.166;4.470;2023-04-03T10:30:20;0.00;;;0.00;;
28188;SDS011;15471;51.166;4.470;2023-04-03T10:41:14;0.10;;;0.10;;
28188;SDS011;15471;51.166;4.470;2023-04-03T10:46:28;0.00;;;0.00;;
28188;SDS011;15471;51.166;4.470;2023-04-03T10:49:06;0.10;;;0.10;;
28188;SDS011;15471;51.166;4.470;2023-04-03T10:51:50;0.00;;;0.00;;
28188;SDS011;15471;51.166;4.470;2023-04-03T10:56:59;0.10;;;0.10;;
28188;SDS011;15471;51.166;4.470;2023-04-03T10:59:29;0.10;;;0.10;;
28188;SDS011;15471;51.166;4.470;2023-04-03T11:02:07;0.00;;;0.00;;
28188;SDS011;15471;51.166;4.470;2023-04-03T11:04:51;0.10;;;0.10;;
28188;SDS011;15471;51.166;4.470;2023-04-03T11:07:26;0.10;;;0.10;;
28188;SDS011;15471;51.166;4.470;2023-04-03T11:10:05;0.10;;;0.10;;
28188;SDS011;15471;51.166;4.470;2023-04-03T11:12:52;0.10;;;0.10;;
28188;SDS011;15471;51.166;4.470;2023-04-03T11:15:23;0.10;;;0.10;;
28188;SDS011;15471;51.166;4.470;2023-04-03T11:17:52;0.00;;;0.00;;
28188;SDS011;15471;51.166;4.470;2023-04-03T11:20:26;0.10;;;0.10;;
28188;SDS011;15471;51.166;4.470;2023-04-03T11:25:56;0.10;;;0.10;;
28188;SDS011;15471;51.166;4.470;2023-04-03T11:28:32;0.00;;;0.00;;
28188;SDS011;15471;51.166;4.470;2023-04-03T11:31:02;0.10;;;0.10;;
28188;SDS011;15471;51.166;4.470;2023-04-03T11:34:31;0.00;;;0.00;;
28188;SDS011;15471;51.166;4.470;2023-04-03T11:37:12;0.08;;;0.08;;
28188;SDS011;15471;51.166;4.470;2023-04-03T11:39:47;0.10;;;0.10;;
28188;SDS011;15471;51.166;4.470;2023-04-03T11:42:28;0.10;;;0.10;;
28188;SDS011;15471;51.166;4.470;2023-04-03T12:16:20;0.00;;;0.00;;
28188;SDS011;15471;51.166;4.470;2023-04-03T12:22:05;0.00;;;0.00;;
28188;SDS011;15471;51.166;4.470;2023-04-03T12:29:43;0.10;;;0.10;;
28188;SDS011;15471;51.166;4.470;2023-04-03T12:35:17;0.00;;;0.00;;
28188;SDS011;15471;51.166;4.470;2023-04-03T12:46:12;0.03;;;0.03;;
28188;SDS011;15471;51.166;4.470;2023-04-03T12:51:15;0.10;;;0.10;;
28188;SDS011;15471;51.166;4.470;2023-04-03T12:53:45;0.00;;;0.00;;
28188;SDS011;15471;51.166;4.470;2023-04-03T12:56:19;0.00;;;0.00;;
28188;SDS011;15471;51.166;4.470;2023-04-03T12:58:46;0.00;;;0.00;;
28188;SDS011;15471;51.166;4.470;2023-04-03T13:01:13;0.00;;;0.00;;
28188;SDS011;15471;51.166;4.470;2023-04-03T13:03:54;0.10;;;0.10;;
28188;SDS011;15471;51.166;4.470;2023-04-03T13:06:55;0.10;;;0.10;;
28188;SDS011;15471;51.166;4.470;2023-04-03T13:09:25;0.00;;;0.00;;
28188;SDS011;15471;51.166;4.470;2023-04-03T13:12:12;0.00;;;0.00;;
28188;SDS011;15471;51.166;4.470;2023-04-03T13:14:49;0.10;;;0.10;;
28188;SDS011;15471;51.166;4.470;2023-04-03T13:17:22;0.00;;;0.00;;
28188;SDS011;15471;51.166;4.470;2023-04-03T13:19:50;0.10;;;0.10;;
28188;SDS011;15471;51.166;4.470;2023-04-03T13:22:36;0.00;;;0.00;;
28188;SDS011;15471;51.166;4.470;2023-04-03T13:25:09;0.05;;;0.05;;
28188;SDS011;15471;51.166;4.470;2023-04-03T13:27:39;0.10;;;0.10;;
28188;SDS011;15471;51.166;4.470;2023-04-03T13:30:20;0.00;;;0.00;;
28188;SDS011;15471;51.166;4.470;2023-04-03T13:33:18;0.00;;;0.00;;
28188;SDS011;15471;51.166;4.470;2023-04-03T13:35:47;0.10;;;0.10;;
28188;SDS011;15471;51.166;4.470;2023-04-03T13:40:54;0.10;;;0.10;;
28188;SDS011;15471;51.166;4.470;2023-04-03T13:43:23;0.10;;;0.10;;
28188;SDS011;15471;51.166;4.470;2023-04-03T13:45:59;0.00;;;0.00;;
28188;SDS011;15471;51.166;4.470;2023-04-03T13:53:43;0.10;;;0.10;;
28188;SDS011;15471;51.166;4.470;2023-04-03T13:59:01;0.00;;;0.00;;
28188;SDS011;15471;51.166;4.470;2023-04-03T14:02:09;0.00;;;0.00;;
28188;SDS011;15471;51.166;4.470;2023-04-03T14:07:09;0.00;;;0.00;;
28188;SDS011;15471;51.166;4.470;2023-04-03T14:09:36;0.00;;;0.00;;
28188;SDS011;15471;51.166;4.470;2023-04-03T14:12:04;0.00;;;0.00;;
28188;SDS011;15471;51.166;4.470;2023-04-03T14:14:35;0.00;;;0.00;;
28188;SDS011;15471;51.166;4.470;2023-04-03T14:17:22;0.00;;;0.00;;
28188;SDS011;15471;51.166;4.470;2023-04-03T14:19:50;0.10;;;0.10;;
28188;SDS011;15471;51.166;4.470;2023-04-03T14:24:48;0.00;;;0.00;;
28188;SDS011;15471;51.166;4.470;2023-04-03T14:29:49;0.00;;;0.00;;
28188;SDS011;15471;51.166;4.470;2023-04-03T14:32:17;0.00;;;0.00;;
28188;SDS011;15471;51.166;4.470;2023-04-03T14:34:45;0.00;;;0.00;;
28188;SDS011;15471;51.166;4.470;2023-04-03T14:37:13;0.00;;;0.00;;
28188;SDS011;15471;51.166;4.470;2023-04-03T14:39:45;0.00;;;0.00;;
28188;SDS011;15471;51.166;4.470;2023-04-03T14:42:13;0.00;;;0.00;;
28188;SDS011;15471;51.166;4.470;2023-04-03T14:44:44;0.10;;;0.10;;
28188;SDS011;15471;51.166;4.470;2023-04-03T14:47:14;0.00;;;0.00;;
28188;SDS011;15471;51.166;4.470;2023-04-03T14:49:42;0.00;;;0.00;;
28188;SDS011;15471;51.166;4.470;2023-04-03T14:52:30;0.00;;;0.00;;
28188;SDS011;15471;51.166;4.470;2023-04-03T14:54:56;0.00;;;0.00;;
28188;SDS011;15471;51.166;4.470;2023-04-03T14:57:23;0.00;;;0.00;;
28188;SDS011;15471;51.166;4.470;2023-04-03T14:59:51;0.00;;;0.00;;
28188;SDS011;15471;51.166;4.470;2023-04-03T15:02:23;0.00;;;0.00;;
28188;SDS011;15471;51.166;4.470;2023-04-03T15:04:53;0.10;;;0.10;;
28188;SDS011;15471;51.166;4.470;2023-04-03T15:07:25;0.00;;;0.00;;
28188;SDS011;15471;51.166;4.470;2023-04-03T15:09:53;0.00;;;0.00;;
28188;SDS011;15471;51.166;4.470;2023-04-03T15:12:22;0.00;;;0.00;;
28188;SDS011;15471;51.166;4.470;2023-04-03T15:14:48;0.00;;;0.00;;
28188;SDS011;15471;51.166;4.470;2023-04-03T15:17:16;0.00;;;0.00;;
28188;SDS011;15471;51.166;4.470;2023-04-03T15:19:45;0.00;;;0.00;;
28188;SDS011;15471;51.166;4.470;2023-04-03T15:22:18;0.00;;;0.00;;
28188;SDS011;15471;51.166;4.470;2023-04-03T15:24:46;0.00;;;0.00;;
28188;SDS011;15471;51.166;4.470;2023-04-03T15:27:13;0.00;;;0.00;;
28188;SDS011;15471;51.166;4.470;2023-04-03T15:29:41;0.10;;;0.10;;
28188;SDS011;15471;51.166;4.470;2023-04-03T15:32:09;0.00;;;0.00;;
28188;SDS011;15471;51.166;4.470;2023-04-03T15:34:37;0.00;;;0.00;;
28188;SDS011;15471;51.166;4.470;2023-04-03T15:37:04;0.00;;;0.00;;
28188;SDS011;15471;51.166;4.470;2023-04-03T15:39:30;0.10;;;0.10;;
28188;SDS011;15471;51.166;4.470;2023-04-03T15:41:56;0.00;;;0.00;;
28188;SDS011;15471;51.166;4.470;2023-04-03T15:44:31;0.00;;;0.00;;
28188;SDS011;15471;51.166;4.470;2023-04-03T15:46:59;0.00;;;0.00;;
28188;SDS011;15471;51.166;4.470;2023-04-03T15:49:25;0.00;;;0.00;;
28188;SDS011;15471;51.166;4.470;2023-04-03T15:51:52;0.00;;;0.00;;
28188;SDS011;15471;51.166;4.470;2023-04-03T15:54:24;0.00;;;0.00;;
28188;SDS011;15471;51.166;4.470;2023-04-03T15:56:51;0.00;;;0.00;;
28188;SDS011;15471;51.166;4.470;2023-04-03T15:59:17;0.00;;;0.00;;
28188;SDS011;15471;51.166;4.470;2023-04-03T16:01:43;0.00;;;0.00;;
28188;SDS011;15471;51.166;4.470;2023-04-03T16:04:10;0.00;;;0.00;;
28188;SDS011;15471;51.166;4.470;2023-04-03T16:06:37;0.00;;;0.00;;
28188;SDS011;15471;51.166;4.470;2023-04-03T16:09:03;0.00;;;0.00;;
28188;SDS011;15471;51.166;4.470;2023-04-03T16:11:30;0.10;;;0.10;;
28188;SDS011;15471;51.166;4.470;2023-04-03T16:13:56;0.00;;;0.00;;
28188;SDS011;15471;51.166;4.470;2023-04-03T16:16:23;0.00;;;0.00;;
28188;SDS011;15471;51.166;4.470;2023-04-03T16:18:49;0.00;;;0.00;;
28188;SDS011;15471;51.166;4.470;2023-04-03T16:21:16;0.00;;;0.00;;
28188;SDS011;15471;51.166;4.470;2023-04-03T16:23:43;0.00;;;0.00;;
28188;SDS011;15471;51.166;4.470;2023-04-03T16:26:10;0.00;;;0.00;;
28188;SDS011;15471;51.166;4.470;2023-04-03T16:28:36;0.00;;;0.00;;
28188;SDS011;15471;51.166;4.470;2023-04-03T16:31:02;0.00;;;0.00;;
28188;SDS011;15471;51.166;4.470;2023-04-03T16:33:28;0.00;;;0.00;;
28188;SDS011;15471;51.166;4.470;2023-04-03T16:35:55;0.00;;;0.00;;
28188;SDS011;15471;51.166;4.470;2023-04-03T16:38:21;0.00;;;0.00;;
28188;SDS011;15471;51.166;4.470;2023-04-03T16:40:47;0.00;;;0.00;;
28188;SDS011;15471;51.166;4.470;2023-04-03T16:43:14;0.00;;;0.00;;
28188;SDS011;15471;51.166;4.470;2023-04-03T16:45:41;0.00;;;0.00;;
28188;SDS011;15471;51.166;4.470;2023-04-03T16:48:07;0.00;;;0.00;;
28188;SDS011;15471;51.166;4.470;2023-04-03T16:50:33;0.00;;;0.00;;
28188;SDS011;15471;51.166;4.470;2023-04-03T16:53:00;0.00;;;0.00;;
28188;SDS011;15471;51.166;4.470;2023-04-03T16:55:28;0.00;;;0.00;;
28188;SDS011;15471;51.166;4.470;2023-04-03T16:57:54;0.00;;;0.00;;
28188;SDS011;15471;51.166;4.470;2023-04-03T17:00:20;0.00;;;0.00;;
28188;SDS011;15471;51.166;4.470;2023-04-03T17:02:46;0.00;;;0.00;;
28188;SDS011;15471;51.166;4.470;2023-04-03T17:05:13;0.00;;;0.00;;
28188;SDS011;15471;51.166;4.470;2023-04-03T17:07:39;0.00;;;0.00;;
28188;SDS011;15471;51.166;4.470;2023-04-03T17:10:05;0.00;;;0.00;;
28188;SDS011;15471;51.166;4.470;2023-04-03T17:12:31;0.00;;;0.00;;